createdAt,value
2022-10-17T00:00:11.649Z,99.90
2022-10-17T00:02:41.142Z,99.90
2022-10-17T00:05:08.421Z,99.90
2022-10-17T00:07:35.269Z,99.90
2022-10-17T00:10:02.178Z,99.90
2022-10-17T00:12:29.049Z,99.90
2022-10-17T00:14:55.918Z,99.90
2022-10-17T00:17:22.867Z,99.90
2022-10-17T00:19:49.745Z,99.90
2022-10-17T00:22:16.682Z,99.90
2022-10-17T00:24:43.542Z,99.90
2022-10-17T00:27:10.413Z,99.90
2022-10-17T00:29:37.301Z,99.90
2022-10-17T00:32:04.231Z,99.90
2022-10-17T00:34:31.329Z,99.90
2022-10-17T00:36:58.570Z,99.90
2022-10-17T00:39:25.526Z,99.90
2022-10-17T00:41:52.468Z,99.90
2022-10-17T00:44:29.339Z,99.90
2022-10-17T00:47:08.728Z,99.90
2022-10-17T00:49:36.810Z,99.90
2022-10-17T00:52:06.223Z,99.90
2022-10-17T00:54:34.663Z,99.90
2022-10-17T00:57:02.208Z,99.90
2022-10-17T00:59:29.874Z,99.90
2022-10-17T01:02:02.133Z,99.90
2022-10-17T01:04:29.135Z,99.90
2022-10-17T01:06:57.028Z,99.90
2022-10-17T01:09:24.985Z,99.90
2022-10-17T01:11:59.996Z,99.90
2022-10-17T01:14:32.944Z,99.90
2022-10-17T01:17:10.432Z,99.90
2022-10-17T01:19:52.583Z,99.90
2022-10-17T01:22:37.722Z,99.90
2022-10-17T01:25:13.882Z,99.90
2022-10-17T01:27:59.445Z,99.90
2022-10-17T01:30:35.918Z,99.90
2022-10-17T01:33:05.923Z,99.90
2022-10-17T01:35:36.295Z,99.90
2022-10-17T01:38:03.214Z,99.90
2022-10-17T01:40:34.170Z,99.90
2022-10-17T01:43:05.277Z,99.90
2022-10-17T01:45:32.321Z,99.90
2022-10-17T01:48:02.457Z,99.90
2022-10-17T01:50:32.568Z,99.90
2022-10-17T01:53:05.247Z,99.90
2022-10-17T01:55:34.034Z,99.90
2022-10-17T01:58:07.698Z,99.90
2022-10-17T02:00:35.652Z,99.90
2022-10-17T02:03:07.524Z,99.90
2022-10-17T02:05:37.900Z,99.90
2022-10-17T02:08:05.106Z,99.90
2022-10-17T02:10:32.114Z,99.90
2022-10-17T02:13:11.196Z,99.90
2022-10-17T02:15:41.115Z,99.90
2022-10-17T02:18:28.047Z,99.90
2022-10-17T02:21:03.139Z,99.90
2022-10-17T02:23:33.843Z,99.90
2022-10-17T02:26:06.899Z,99.90
2022-10-17T02:28:39.775Z,99.90
2022-10-17T02:31:15.920Z,99.90
2022-10-17T02:33:48.992Z,99.90
2022-10-17T02:36:20.134Z,99.90
2022-10-17T02:38:47.395Z,99.90
2022-10-17T02:41:15.914Z,99.90
2022-10-17T02:43:45.608Z,99.90
2022-10-17T02:46:20.852Z,99.90
2022-10-17T02:49:01.070Z,99.90
2022-10-17T02:51:28.144Z,99.90
2022-10-17T02:53:55.007Z,99.90
2022-10-17T02:56:22.398Z,99.90
2022-10-17T02:58:51.771Z,99.90
2022-10-17T03:01:19.253Z,99.90
2022-10-17T03:03:46.573Z,99.90
2022-10-17T03:06:13.566Z,99.90
2022-10-17T03:08:40.507Z,99.90
2022-10-17T03:11:07.683Z,99.90
2022-10-17T03:13:36.339Z,99.90
2022-10-17T03:16:06.827Z,99.90
2022-10-17T03:18:33.978Z,99.90
2022-10-17T03:21:02.962Z,99.90
2022-10-17T03:23:30.060Z,99.90
2022-10-17T03:25:57.367Z,99.90
2022-10-17T03:28:24.688Z,99.90
2022-10-17T03:30:51.688Z,99.90
2022-10-17T03:33:18.693Z,99.90
2022-10-17T03:35:45.729Z,99.90
2022-10-17T03:38:12.992Z,99.90
2022-10-17T03:40:40.013Z,99.90
2022-10-17T03:43:07.001Z,99.90
2022-10-17T03:45:33.869Z,99.90
2022-10-17T03:48:01.534Z,99.90
2022-10-17T03:50:29.955Z,99.90
2022-10-17T03:52:57.884Z,99.90
2022-10-17T03:55:24.974Z,99.90
2022-10-17T03:57:54.307Z,99.90
2022-10-17T04:00:23.131Z,99.90
2022-10-17T04:02:55.798Z,99.90
2022-10-17T04:05:22.817Z,99.90
2022-10-17T04:07:49.709Z,99.90
2022-10-17T04:10:19.395Z,99.90
2022-10-17T04:12:47.398Z,99.90
2022-10-17T04:15:14.954Z,99.90
2022-10-17T04:17:41.899Z,99.90
2022-10-17T04:20:09.120Z,99.90
2022-10-17T04:22:36.906Z,99.90
2022-10-17T04:25:04.772Z,99.90
2022-10-17T04:27:38.096Z,99.90
2022-10-17T04:30:06.360Z,99.90
2022-10-17T04:32:36.694Z,99.90
2022-10-17T04:35:09.450Z,99.90
2022-10-17T04:37:37.066Z,99.90
2022-10-17T04:40:10.677Z,99.90
2022-10-17T04:42:38.094Z,99.90
2022-10-17T04:45:06.033Z,99.90
2022-10-17T04:47:33.064Z,99.90
2022-10-17T04:50:00.544Z,99.90
2022-10-17T04:52:30.685Z,99.90
2022-10-17T04:55:01.275Z,99.90
2022-10-17T04:57:28.524Z,99.90
2022-10-17T05:00:04.319Z,99.90
2022-10-17T05:03:03.803Z,99.90
2022-10-17T05:05:31.066Z,99.90
2022-10-17T05:07:57.989Z,99.90
2022-10-17T05:10:29.143Z,99.90
2022-10-17T05:12:57.698Z,99.90
2022-10-17T05:15:29.284Z,99.90
2022-10-17T05:17:57.068Z,99.90
2022-10-17T05:20:25.733Z,99.90
2022-10-17T05:22:53.016Z,99.90
2022-10-17T05:25:20.768Z,99.90
2022-10-17T05:27:47.617Z,99.90
2022-10-17T05:30:15.355Z,99.90
2022-10-17T05:32:43.907Z,99.90
2022-10-17T05:35:10.864Z,99.90
2022-10-17T05:37:38.892Z,99.90
2022-10-17T05:40:06.674Z,99.90
2022-10-17T05:42:34.019Z,99.90
2022-10-17T05:45:01.749Z,99.90
2022-10-17T05:47:30.117Z,99.90
2022-10-17T05:49:57.233Z,99.90
2022-10-17T05:52:31.881Z,99.90
2022-10-17T05:55:11.910Z,99.90
2022-10-17T05:57:39.775Z,99.90
2022-10-17T06:00:11.282Z,99.90
2022-10-17T06:02:53.318Z,99.90
2022-10-17T06:05:20.606Z,99.90
2022-10-17T06:07:49.293Z,99.90
2022-10-17T06:10:18.346Z,99.90
2022-10-17T06:12:45.552Z,99.90
2022-10-17T06:15:13.003Z,99.90
2022-10-17T06:17:43.495Z,99.90
2022-10-17T06:20:10.830Z,99.90
2022-10-17T06:22:37.714Z,99.90
2022-10-17T06:25:09.889Z,99.90
2022-10-17T06:27:36.854Z,99.90
2022-10-17T06:30:04.715Z,99.90
2022-10-17T06:32:32.302Z,99.90
2022-10-17T06:34:59.928Z,99.90
2022-10-17T06:37:33.785Z,99.90
2022-10-17T06:40:05.484Z,99.90
2022-10-17T06:42:32.427Z,99.90
2022-10-17T06:45:34.248Z,99.90
2022-10-17T06:48:27.047Z,99.90
2022-10-17T06:51:13.160Z,99.90
2022-10-17T06:53:59.780Z,99.90
2022-10-17T06:56:33.884Z,99.90
2022-10-17T06:59:27.351Z,80.50
2022-10-17T07:02:14.513Z,63.60
2022-10-17T07:04:43.185Z,64.10
2022-10-17T07:07:12.517Z,59.50
2022-10-17T07:09:39.542Z,55.30
2022-10-17T07:12:08.606Z,51.30
2022-10-17T07:14:36.190Z,52.70
2022-10-17T07:17:04.061Z,53.90
2022-10-17T07:19:32.817Z,51.40
2022-10-17T07:21:59.839Z,50.60
2022-10-17T07:24:27.598Z,48.60
2022-10-17T07:27:18.757Z,48.20
2022-10-17T07:29:46.861Z,47.90
2022-10-17T07:32:35.885Z,48.20
2022-10-17T07:35:04.495Z,49.30
2022-10-17T07:37:32.187Z,48.70
2022-10-17T07:40:00.087Z,46.00
2022-10-17T07:42:28.562Z,45.50
2022-10-17T07:44:55.600Z,45.50
2022-10-17T07:47:23.698Z,46.00
2022-10-17T07:49:51.980Z,44.40
2022-10-17T07:52:18.944Z,44.70
2022-10-17T07:54:45.780Z,44.80
2022-10-17T07:57:12.756Z,45.00
2022-10-17T07:59:39.736Z,43.20
2022-10-17T08:02:08.211Z,41.80
2022-10-17T08:04:36.516Z,41.30
2022-10-17T08:07:19.697Z,41.90
2022-10-17T08:09:49.269Z,41.10
2022-10-17T08:12:16.396Z,41.30
2022-10-17T08:14:43.674Z,40.90
2022-10-17T08:17:10.587Z,41.40
2022-10-17T08:19:41.051Z,42.00
2022-10-17T08:22:08.522Z,40.70
2022-10-17T08:24:35.722Z,40.00
2022-10-17T08:27:02.879Z,42.60
2022-10-17T08:29:29.792Z,43.60
2022-10-17T08:32:00.893Z,42.50
2022-10-17T08:34:28.415Z,44.50
2022-10-17T08:36:55.288Z,47.00
2022-10-17T08:39:22.266Z,47.20
2022-10-17T08:41:52.135Z,47.30
2022-10-17T08:44:25.711Z,49.80
2022-10-17T08:46:54.040Z,51.00
2022-10-17T08:49:25.280Z,53.10
2022-10-17T08:51:55.964Z,53.30
2022-10-17T08:54:27.187Z,57.80
2022-10-17T08:56:55.370Z,58.20
2022-10-17T08:59:29.554Z,59.00
2022-10-17T09:02:14.729Z,60.30
2022-10-17T09:04:44.691Z,62.10
2022-10-17T09:07:28.985Z,63.90
2022-10-17T09:10:05.243Z,64.40
2022-10-17T09:12:32.359Z,68.00
2022-10-17T09:15:12.393Z,69.10
2022-10-17T09:17:50.075Z,67.40
2022-10-17T09:20:22.581Z,66.90
2022-10-17T09:22:52.719Z,67.60
2022-10-17T09:25:20.854Z,65.40
2022-10-17T09:27:47.789Z,64.40
2022-10-17T09:30:43.563Z,66.80
2022-10-17T09:33:28.298Z,65.40
2022-10-17T09:36:02.992Z,69.80
2022-10-17T09:38:34.809Z,69.60
2022-10-17T09:41:02.627Z,68.80
2022-10-17T09:43:29.597Z,68.00
2022-10-17T09:46:09.447Z,66.40
2022-10-17T09:48:52.516Z,68.40
2022-10-17T09:51:26.199Z,69.10
2022-10-17T09:54:15.690Z,67.40
2022-10-17T09:56:58.964Z,69.00
2022-10-17T09:59:34.009Z,68.80
2022-10-17T10:02:09.972Z,68.10
2022-10-17T10:04:59.730Z,70.00
2022-10-17T10:07:29.451Z,68.20
2022-10-17T10:09:57.150Z,68.50
2022-10-17T10:12:25.954Z,66.20
2022-10-17T10:14:54.750Z,65.70
2022-10-17T10:17:33.799Z,65.80
2022-10-17T10:20:01.242Z,66.70
2022-10-17T10:22:28.848Z,69.10
2022-10-17T10:25:11.177Z,67.70
2022-10-17T10:27:39.815Z,69.20
2022-10-17T10:30:07.953Z,68.70
2022-10-17T10:32:36.076Z,68.90
2022-10-17T10:35:23.294Z,65.80
2022-10-17T10:37:52.515Z,66.00
2022-10-17T10:40:19.470Z,66.00
2022-10-17T10:42:51.195Z,66.10
2022-10-17T10:48:18.787Z,67.60
2022-10-17T10:50:48.265Z,64.20
2022-10-17T10:53:18.304Z,63.60
2022-10-17T10:55:48.221Z,64.20
2022-10-17T10:58:34.734Z,64.70
2022-10-17T11:01:10.702Z,63.50
2022-10-17T11:03:56.310Z,63.20
2022-10-17T11:06:27.505Z,64.40
2022-10-17T11:09:09.663Z,65.20
2022-10-17T11:11:42.676Z,64.40
2022-10-17T11:14:13.771Z,63.10
2022-10-17T11:16:47.496Z,62.60
2022-10-17T11:19:14.783Z,63.20
2022-10-17T11:22:07.816Z,61.80
2022-10-17T11:24:38.786Z,64.30
2022-10-17T11:27:06.749Z,60.90
2022-10-17T11:29:36.354Z,63.10
2022-10-17T11:32:09.265Z,60.80
2022-10-17T11:34:39.886Z,62.70
2022-10-17T11:37:12.242Z,63.70
2022-10-17T11:39:42.691Z,63.50
2022-10-17T11:42:15.208Z,61.80
2022-10-17T11:44:43.013Z,65.10
2022-10-17T11:47:19.228Z,59.90
2022-10-17T11:49:50.985Z,60.90
2022-10-17T11:52:26.994Z,59.80
2022-10-17T11:55:16.053Z,62.20
2022-10-17T11:57:46.022Z,59.60
2022-10-17T12:00:16.097Z,61.20
2022-10-17T12:02:49.688Z,60.00
2022-10-17T12:05:20.141Z,60.20
2022-10-17T12:08:13.463Z,61.10
2022-10-17T12:10:46.736Z,61.90
2022-10-17T12:13:29.064Z,60.10
2022-10-17T12:15:56.474Z,61.40
2022-10-17T12:18:29.329Z,62.20
2022-10-17T12:20:58.042Z,61.00
2022-10-17T12:23:29.056Z,61.40
2022-10-17T12:25:58.417Z,59.60
2022-10-17T12:28:40.935Z,60.90
2022-10-17T12:31:12.355Z,60.20
2022-10-17T12:33:49.641Z,59.40
2022-10-17T12:36:22.484Z,60.90
2022-10-17T12:39:11.935Z,59.50
2022-10-17T12:41:38.961Z,61.70
2022-10-17T12:44:27.015Z,61.10
2022-10-17T12:47:05.998Z,62.90
2022-10-17T12:49:37.725Z,60.00
2022-10-17T12:52:19.223Z,64.40
2022-10-17T12:55:11.954Z,60.80
2022-10-17T12:57:51.860Z,60.00
2022-10-17T13:00:18.719Z,61.50
2022-10-17T13:02:45.966Z,62.80
2022-10-17T13:05:19.587Z,62.30
2022-10-17T13:07:48.026Z,60.40
2022-10-17T13:10:20.431Z,61.20
2022-10-17T13:12:47.983Z,63.10
2022-10-17T13:15:17.557Z,62.30
2022-10-17T13:17:44.535Z,61.30
2022-10-17T13:20:28.860Z,61.10
2022-10-17T13:22:58.445Z,58.80
2022-10-17T13:25:26.402Z,59.40
2022-10-17T13:28:04.189Z,62.70
2022-10-17T13:30:32.821Z,64.80
2022-10-17T13:33:00.346Z,60.40
2022-10-17T13:35:55.448Z,61.20
2022-10-17T13:38:17.535Z,61.30
2022-10-17T13:40:49.950Z,59.20
2022-10-17T13:43:19.637Z,59.70
2022-10-17T13:45:50.583Z,61.30
2022-10-17T13:48:19.516Z,59.80
2022-10-17T13:50:48.275Z,59.90
2022-10-17T13:53:44.685Z,60.60
2022-10-17T13:56:30.158Z,63.90
2022-10-17T13:58:59.265Z,62.00
2022-10-17T14:01:27.387Z,62.10
2022-10-17T14:04:07.908Z,61.30
2022-10-17T14:06:46.450Z,63.00
2022-10-17T14:09:27.137Z,64.60
2022-10-17T14:11:59.877Z,64.40
2022-10-17T14:14:27.028Z,65.20
2022-10-17T14:16:54.412Z,64.90
2022-10-17T14:19:24.431Z,64.00
2022-10-17T14:22:30.169Z,64.50
2022-10-17T14:25:01.496Z,63.60
2022-10-17T14:27:38.158Z,62.30
2022-10-17T14:30:07.306Z,61.10
2022-10-17T14:32:35.026Z,62.50
2022-10-17T14:35:18.865Z,61.20
2022-10-17T14:37:51.651Z,62.00
2022-10-17T14:40:19.915Z,63.00
2022-10-17T14:42:48.330Z,63.00
2022-10-17T14:45:23.884Z,63.60
2022-10-17T14:47:51.869Z,62.70
2022-10-17T14:50:21.927Z,64.20
2022-10-17T14:53:21.040Z,63.80
2022-10-17T14:55:55.680Z,63.10
2022-10-17T14:58:28.014Z,64.70
2022-10-17T15:00:55.336Z,62.90
2022-10-17T15:03:24.108Z,62.00
2022-10-17T15:05:51.631Z,62.70
2022-10-17T15:08:19.455Z,62.60
2022-10-17T15:10:47.300Z,63.10
2022-10-17T15:13:33.532Z,63.10
2022-10-17T15:16:01.397Z,64.40
2022-10-17T15:18:28.375Z,66.70
2022-10-17T15:21:04.696Z,65.70
2022-10-17T15:23:33.559Z,66.40
2022-10-17T15:26:00.887Z,68.00
2022-10-17T15:28:27.921Z,66.80
2022-10-17T15:30:54.853Z,66.80
2022-10-17T15:33:21.680Z,67.40
2022-10-17T15:35:48.796Z,67.80
2022-10-17T15:38:17.973Z,68.10
2022-10-17T15:40:46.032Z,68.90
2022-10-17T15:43:15.032Z,69.30
2022-10-17T15:45:44.336Z,70.40
2022-10-17T15:48:18.856Z,71.00
2022-10-17T15:50:45.820Z,71.80
2022-10-17T15:53:12.903Z,73.00
2022-10-17T15:55:40.056Z,73.70
2022-10-17T15:58:06.993Z,74.50
2022-10-17T16:00:33.893Z,75.00
2022-10-17T16:03:00.797Z,75.80
2022-10-17T16:05:29.365Z,76.80
2022-10-17T16:07:57.566Z,76.80
2022-10-17T16:10:26.025Z,77.70
2022-10-17T16:12:53.044Z,79.20
2022-10-17T16:15:24.838Z,79.90
2022-10-17T16:17:52.436Z,80.30
2022-10-17T16:20:19.948Z,81.50
2022-10-17T16:22:47.601Z,82.30
2022-10-17T16:25:19.864Z,83.00
2022-10-17T16:27:47.661Z,83.50
2022-10-17T16:30:14.863Z,84.40
2022-10-17T16:32:42.226Z,86.00
2022-10-17T16:35:09.766Z,88.60
2022-10-17T16:37:36.758Z,90.30
2022-10-17T16:40:04.473Z,91.10
2022-10-17T16:42:31.552Z,91.10
2022-10-17T16:44:58.729Z,92.60
2022-10-17T16:47:25.595Z,93.90
2022-10-17T16:49:52.480Z,94.70
2022-10-17T16:52:19.401Z,95.40
2022-10-17T16:54:46.316Z,95.90
2022-10-17T16:57:13.164Z,96.40
2022-10-17T16:59:40.005Z,96.50
2022-10-17T17:02:07.134Z,96.70
2022-10-17T17:04:34.087Z,96.60
2022-10-17T17:07:01.126Z,96.70
2022-10-17T17:09:31.943Z,97.90
2022-10-17T17:11:58.870Z,98.40
2022-10-17T17:14:25.800Z,99.30
2022-10-17T17:16:52.724Z,99.90
2022-10-17T17:19:20.504Z,99.90
2022-10-17T17:21:51.098Z,99.90
2022-10-17T17:24:20.940Z,99.90
2022-10-17T17:26:54.783Z,99.90
2022-10-17T17:29:22.073Z,99.90
2022-10-17T17:31:49.564Z,99.90
2022-10-17T17:34:18.131Z,99.90
2022-10-17T17:36:45.399Z,99.90
2022-10-17T17:39:13.810Z,99.90
2022-10-17T17:41:41.324Z,99.90
2022-10-17T17:44:15.629Z,99.90
2022-10-17T17:46:44.128Z,99.90
2022-10-17T17:49:11.681Z,99.90
2022-10-17T17:51:38.699Z,99.90
2022-10-17T17:54:05.570Z,99.90
2022-10-17T17:56:32.500Z,99.90
2022-10-17T17:59:00.463Z,99.90
2022-10-17T18:01:28.922Z,99.90
2022-10-17T18:03:59.063Z,99.90
2022-10-17T18:06:26.377Z,99.90
2022-10-17T18:08:54.933Z,99.90
2022-10-17T18:11:22.371Z,99.90
2022-10-17T18:14:15.777Z,99.90
2022-10-17T18:16:46.122Z,99.90
2022-10-17T18:19:13.327Z,99.90
2022-10-17T18:21:40.199Z,99.90
2022-10-17T18:24:10.347Z,99.90
2022-10-17T18:26:37.305Z,99.90
2022-10-17T18:29:04.365Z,99.90
2022-10-17T18:31:36.172Z,99.90
2022-10-17T18:34:04.194Z,99.90
2022-10-17T18:36:31.551Z,99.90
2022-10-17T18:38:59.316Z,99.90
2022-10-17T18:41:27.033Z,99.90
2022-10-17T18:43:54.591Z,99.90
2022-10-17T18:46:22.544Z,99.90
2022-10-17T18:48:50.195Z,99.90
2022-10-17T18:51:18.406Z,99.90
2022-10-17T18:53:46.564Z,99.90
2022-10-17T18:56:13.717Z,99.90
2022-10-17T18:58:41.112Z,99.90
2022-10-17T19:01:10.506Z,99.90
2022-10-17T19:03:37.840Z,99.90
2022-10-17T19:06:09.183Z,99.90
2022-10-17T19:08:36.820Z,99.90
2022-10-17T19:11:07.947Z,99.90
2022-10-17T19:13:35.435Z,99.90
2022-10-17T19:16:06.970Z,99.90
2022-10-17T19:18:34.311Z,99.90
2022-10-17T19:21:02.175Z,99.90
2022-10-17T19:23:30.713Z,99.90
2022-10-17T19:26:11.360Z,99.90
2022-10-17T19:28:39.412Z,99.90
2022-10-17T19:31:06.767Z,99.90
2022-10-17T19:33:33.847Z,99.90
2022-10-17T19:36:01.990Z,99.90
2022-10-17T19:38:28.950Z,99.90
2022-10-17T19:40:55.982Z,99.90
2022-10-17T19:43:23.270Z,99.90
2022-10-17T19:45:56.752Z,99.90
2022-10-17T19:48:24.125Z,99.90
2022-10-17T19:50:51.216Z,99.90
2022-10-17T19:53:18.461Z,99.90
2022-10-17T19:55:45.490Z,99.90
2022-10-17T19:58:12.350Z,99.90
2022-10-17T20:00:49.484Z,99.90
2022-10-17T20:03:16.665Z,99.90
2022-10-17T20:05:43.659Z,99.90
2022-10-17T20:08:10.578Z,99.90
2022-10-17T20:10:37.477Z,99.90
2022-10-17T20:13:04.371Z,99.90
2022-10-17T20:15:31.269Z,99.90
2022-10-17T20:17:58.156Z,99.90
2022-10-17T20:20:25.542Z,99.90
2022-10-17T20:22:52.476Z,99.90
2022-10-17T20:25:19.596Z,99.90
2022-10-17T20:27:46.673Z,99.90
2022-10-17T20:30:13.551Z,99.90
2022-10-17T20:32:40.718Z,99.90
2022-10-17T20:35:08.270Z,99.90
2022-10-17T20:37:41.448Z,99.90
2022-10-17T20:42:59.426Z,99.90
2022-10-17T20:45:37.679Z,99.90
2022-10-17T20:48:15.204Z,99.90
2022-10-17T20:50:43.061Z,99.90
2022-10-17T20:53:34.896Z,99.90
2022-10-17T20:56:12.939Z,99.90
2022-10-17T20:58:39.883Z,99.90
2022-10-17T21:01:10.388Z,99.90
2022-10-17T21:03:42.326Z,99.90
2022-10-17T21:06:12.894Z,99.90
2022-10-17T21:08:39.811Z,99.90
2022-10-17T21:11:07.783Z,99.90
2022-10-17T21:13:34.832Z,99.90
2022-10-17T21:16:09.007Z,99.90
2022-10-17T21:18:35.860Z,99.90
2022-10-17T21:21:08.883Z,99.90
2022-10-17T21:23:35.939Z,99.90
2022-10-17T21:26:04.213Z,99.90
2022-10-17T21:28:32.258Z,99.90
2022-10-17T21:31:14.456Z,99.90
2022-10-17T21:33:41.992Z,99.90
2022-10-17T21:36:09.659Z,99.90
2022-10-17T21:38:39.717Z,99.90
2022-10-17T21:41:07.615Z,99.90
2022-10-17T21:43:37.240Z,99.90
2022-10-17T21:46:04.859Z,99.90
2022-10-17T21:48:32.029Z,99.90
2022-10-17T21:51:03.356Z,99.90
2022-10-17T21:53:30.784Z,99.90
2022-10-17T21:56:04.767Z,99.90
2022-10-17T21:58:31.928Z,99.90
2022-10-17T22:01:08.172Z,99.90
2022-10-17T22:03:35.935Z,99.90
2022-10-17T22:06:12.928Z,99.90
2022-10-17T22:08:50.623Z,99.90
2022-10-17T22:11:19.064Z,99.90
2022-10-17T22:13:46.032Z,99.90
2022-10-17T22:16:14.057Z,99.90
2022-10-17T22:18:41.436Z,99.90
2022-10-17T22:21:10.062Z,99.90
2022-10-17T22:23:38.342Z,99.90
2022-10-17T22:26:05.896Z,99.90
2022-10-17T22:28:33.452Z,99.90
2022-10-17T22:31:00.713Z,99.90
2022-10-17T22:33:28.037Z,99.90
2022-10-17T22:35:54.965Z,99.90
2022-10-17T22:38:21.892Z,99.90
2022-10-17T22:40:48.807Z,99.90
2022-10-17T22:43:15.757Z,99.90
2022-10-17T22:45:42.696Z,99.90
2022-10-17T22:48:09.900Z,99.90
2022-10-17T22:50:39.992Z,99.90
2022-10-17T22:53:07.062Z,99.90
2022-10-17T22:55:34.033Z,99.90
2022-10-17T22:58:00.927Z,99.90
2022-10-17T23:02:56.046Z,99.90
2022-10-17T23:05:22.965Z,99.90
2022-10-17T23:07:49.935Z,99.90
2022-10-17T23:10:16.941Z,99.90
2022-10-17T23:12:43.903Z,99.90
2022-10-17T23:15:10.900Z,99.90
2022-10-17T23:17:37.850Z,99.90
2022-10-17T23:20:05.006Z,99.90
2022-10-17T23:22:32.273Z,99.90
2022-10-17T23:24:59.389Z,99.90
2022-10-17T23:27:26.423Z,99.90
2022-10-17T23:29:53.426Z,99.90
2022-10-17T23:32:20.969Z,99.90
2022-10-17T23:34:47.905Z,99.90
2022-10-17T23:37:14.993Z,99.90
2022-10-17T23:39:41.961Z,99.90
2022-10-17T23:42:08.887Z,99.90
2022-10-17T23:44:35.940Z,99.90
2022-10-17T23:47:02.907Z,99.90
2022-10-17T23:49:30.060Z,99.90
2022-10-17T23:51:57.037Z,99.90
2022-10-17T23:54:23.959Z,99.90
2022-10-17T23:56:50.893Z,99.90
2022-10-17T23:59:17.908Z,99.90
